sensor_id;sensor_type;location;lat;lon;timestamp;P1;durP1;ratioP1;P2;durP2;ratioP2
8252;SDS011;61313;48.396;10.008;2024-02-26T00:00:06;5.63;;;4.80;;
8252;SDS011;61313;48.396;10.008;2024-02-26T00:02:37;5.70;;;4.50;;
8252;SDS011;61313;48.396;10.008;2024-02-26T00:05:06;6.10;;;4.97;;
8252;SDS011;61313;48.396;10.008;2024-02-26T00:07:32;5.27;;;4.33;;
8252;SDS011;61313;48.396;10.008;2024-02-26T00:09:57;5.43;;;5.00;;
8252;SDS011;61313;48.396;10.008;2024-02-26T00:12:23;5.60;;;4.80;;
8252;SDS011;61313;48.396;10.008;2024-02-26T00:14:48;6.37;;;4.23;;
8252;SDS011;61313;48.396;10.008;2024-02-26T00:17:14;4.33;;;3.93;;
8252;SDS011;61313;48.396;10.008;2024-02-26T00:19:40;5.63;;;4.70;;
8252;SDS011;61313;48.396;10.008;2024-02-26T00:22:05;5.73;;;4.70;;
8252;SDS011;61313;48.396;10.008;2024-02-26T00:24:31;12.93;;;5.30;;
8252;SDS011;61313;48.396;10.008;2024-02-26T00:26:56;6.17;;;4.70;;
8252;SDS011;61313;48.396;10.008;2024-02-26T00:29:22;6.40;;;5.00;;
8252;SDS011;61313;48.396;10.008;2024-02-26T00:31:48;5.80;;;5.30;;
8252;SDS011;61313;48.396;10.008;2024-02-26T00:34:13;6.97;;;4.57;;
8252;SDS011;61313;48.396;10.008;2024-02-26T00:36:39;5.10;;;4.60;;
8252;SDS011;61313;48.396;10.008;2024-02-26T00:39:04;6.80;;;6.03;;
8252;SDS011;61313;48.396;10.008;2024-02-26T00:41:30;6.30;;;5.43;;
8252;SDS011;61313;48.396;10.008;2024-02-26T00:43:55;7.40;;;5.73;;
8252;SDS011;61313;48.396;10.008;2024-02-26T00:46:21;5.47;;;4.80;;
8252;SDS011;61313;48.396;10.008;2024-02-26T00:48:46;5.70;;;5.10;;
8252;SDS011;61313;48.396;10.008;2024-02-26T00:51:11;5.63;;;4.80;;
8252;SDS011;61313;48.396;10.008;2024-02-26T00:53:37;5.73;;;5.13;;
8252;SDS011;61313;48.396;10.008;2024-02-26T00:56:02;7.03;;;5.50;;
8252;SDS011;61313;48.396;10.008;2024-02-26T00:58:28;6.23;;;5.30;;
8252;SDS011;61313;48.396;10.008;2024-02-26T01:00:53;5.60;;;4.80;;
8252;SDS011;61313;48.396;10.008;2024-02-26T01:03:19;9.80;;;6.67;;
8252;SDS011;61313;48.396;10.008;2024-02-26T01:05:44;5.63;;;5.13;;
8252;SDS011;61313;48.396;10.008;2024-02-26T01:08:10;6.03;;;5.43;;
8252;SDS011;61313;48.396;10.008;2024-02-26T01:10:35;6.93;;;5.30;;
8252;SDS011;61313;48.396;10.008;2024-02-26T01:13:01;6.10;;;5.20;;
8252;SDS011;61313;48.396;10.008;2024-02-26T01:15:27;7.07;;;6.37;;
8252;SDS011;61313;48.396;10.008;2024-02-26T01:17:52;7.23;;;5.70;;
8252;SDS011;61313;48.396;10.008;2024-02-26T01:20:18;6.23;;;5.50;;
8252;SDS011;61313;48.396;10.008;2024-02-26T01:22:44;7.37;;;5.27;;
8252;SDS011;61313;48.396;10.008;2024-02-26T01:25:10;6.53;;;5.53;;
8252;SDS011;61313;48.396;10.008;2024-02-26T01:27:36;6.90;;;5.93;;
8252;SDS011;61313;48.396;10.008;2024-02-26T01:30:04;9.70;;;6.67;;
8252;SDS011;61313;48.396;10.008;2024-02-26T01:32:31;8.10;;;5.70;;
8252;SDS011;61313;48.396;10.008;2024-02-26T01:34:56;8.67;;;6.10;;
8252;SDS011;61313;48.396;10.008;2024-02-26T01:37:22;7.00;;;6.30;;
8252;SDS011;61313;48.396;10.008;2024-02-26T01:39:47;9.80;;;7.03;;
8252;SDS011;61313;48.396;10.008;2024-02-26T01:42:13;7.27;;;5.60;;
8252;SDS011;61313;48.396;10.008;2024-02-26T01:44:38;8.27;;;6.57;;
8252;SDS011;61313;48.396;10.008;2024-02-26T01:47:04;7.73;;;5.73;;
8252;SDS011;61313;48.396;10.008;2024-02-26T01:49:33;7.00;;;5.77;;
8252;SDS011;61313;48.396;10.008;2024-02-26T01:52:00;7.57;;;5.23;;
8252;SDS011;61313;48.396;10.008;2024-02-26T01:54:28;6.23;;;5.63;;
8252;SDS011;61313;48.396;10.008;2024-02-26T01:56:54;10.27;;;6.80;;
8252;SDS011;61313;48.396;10.008;2024-02-26T01:59:20;8.30;;;7.07;;
8252;SDS011;61313;48.396;10.008;2024-02-26T02:01:47;7.60;;;6.60;;
8252;SDS011;61313;48.396;10.008;2024-02-26T02:04:17;9.10;;;6.63;;
8252;SDS011;61313;48.396;10.008;2024-02-26T02:06:43;6.87;;;6.17;;
8252;SDS011;61313;48.396;10.008;2024-02-26T02:09:11;7.80;;;6.40;;
8252;SDS011;61313;48.396;10.008;2024-02-26T02:11:36;6.67;;;5.80;;
8252;SDS011;61313;48.396;10.008;2024-02-26T02:14:02;9.00;;;7.13;;
8252;SDS011;61313;48.396;10.008;2024-02-26T02:16:28;8.10;;;7.30;;
8252;SDS011;61313;48.396;10.008;2024-02-26T02:18:53;7.93;;;7.20;;
8252;SDS011;61313;48.396;10.008;2024-02-26T02:21:19;7.60;;;6.40;;
8252;SDS011;61313;48.396;10.008;2024-02-26T02:23:44;7.57;;;6.77;;
8252;SDS011;61313;48.396;10.008;2024-02-26T02:26:11;7.57;;;5.80;;
8252;SDS011;61313;48.396;10.008;2024-02-26T02:28:38;8.07;;;6.50;;
8252;SDS011;61313;48.396;10.008;2024-02-26T02:31:05;7.53;;;6.83;;
8252;SDS011;61313;48.396;10.008;2024-02-26T02:33:30;8.73;;;6.40;;
8252;SDS011;61313;48.396;10.008;2024-02-26T02:35:56;9.60;;;7.63;;
8252;SDS011;61313;48.396;10.008;2024-02-26T02:38:23;7.20;;;6.30;;
8252;SDS011;61313;48.396;10.008;2024-02-26T02:40:48;10.93;;;6.97;;
8252;SDS011;61313;48.396;10.008;2024-02-26T02:43:14;6.97;;;6.10;;
8252;SDS011;61313;48.396;10.008;2024-02-26T02:45:39;9.67;;;7.03;;
8252;SDS011;61313;48.396;10.008;2024-02-26T02:48:05;8.77;;;6.20;;
8252;SDS011;61313;48.396;10.008;2024-02-26T02:50:30;7.83;;;6.30;;
8252;SDS011;61313;48.396;10.008;2024-02-26T02:52:55;8.10;;;7.30;;
8252;SDS011;61313;48.396;10.008;2024-02-26T02:55:21;8.23;;;7.37;;
8252;SDS011;61313;48.396;10.008;2024-02-26T02:57:46;6.90;;;6.17;;
8252;SDS011;61313;48.396;10.008;2024-02-26T03:00:12;7.73;;;6.47;;
8252;SDS011;61313;48.396;10.008;2024-02-26T03:02:37;7.90;;;6.60;;
8252;SDS011;61313;48.396;10.008;2024-02-26T03:05:03;6.70;;;6.00;;
8252;SDS011;61313;48.396;10.008;2024-02-26T03:07:29;6.73;;;6.00;;
8252;SDS011;61313;48.396;10.008;2024-02-26T03:09:54;7.60;;;6.90;;
8252;SDS011;61313;48.396;10.008;2024-02-26T03:12:20;6.40;;;5.63;;
8252;SDS011;61313;48.396;10.008;2024-02-26T03:14:46;7.07;;;6.37;;
8252;SDS011;61313;48.396;10.008;2024-02-26T03:17:11;6.93;;;6.03;;
8252;SDS011;61313;48.396;10.008;2024-02-26T03:19:37;8.27;;;7.47;;
8252;SDS011;61313;48.396;10.008;2024-02-26T03:22:02;9.53;;;6.80;;
8252;SDS011;61313;48.396;10.008;2024-02-26T03:24:27;9.63;;;7.07;;
8252;SDS011;61313;48.396;10.008;2024-02-26T03:26:53;8.53;;;6.93;;
8252;SDS011;61313;48.396;10.008;2024-02-26T03:29:18;8.57;;;7.40;;
8252;SDS011;61313;48.396;10.008;2024-02-26T03:31:44;8.00;;;6.90;;
8252;SDS011;61313;48.396;10.008;2024-02-26T03:34:09;10.73;;;7.30;;
8252;SDS011;61313;48.396;10.008;2024-02-26T03:36:36;9.07;;;6.77;;
8252;SDS011;61313;48.396;10.008;2024-02-26T03:39:02;10.10;;;7.37;;
8252;SDS011;61313;48.396;10.008;2024-02-26T03:41:32;7.53;;;6.73;;
8252;SDS011;61313;48.396;10.008;2024-02-26T03:43:58;7.60;;;6.70;;
8252;SDS011;61313;48.396;10.008;2024-02-26T03:46:23;9.00;;;8.10;;
8252;SDS011;61313;48.396;10.008;2024-02-26T03:48:49;10.10;;;6.77;;
8252;SDS011;61313;48.396;10.008;2024-02-26T03:51:14;10.20;;;7.00;;
8252;SDS011;61313;48.396;10.008;2024-02-26T03:53:40;8.50;;;7.60;;
8252;SDS011;61313;48.396;10.008;2024-02-26T03:56:05;9.03;;;7.77;;
8252;SDS011;61313;48.396;10.008;2024-02-26T03:58:31;8.70;;;7.80;;
8252;SDS011;61313;48.396;10.008;2024-02-26T04:00:57;9.10;;;7.60;;
8252;SDS011;61313;48.396;10.008;2024-02-26T04:03:22;9.67;;;7.50;;
8252;SDS011;61313;48.396;10.008;2024-02-26T04:05:48;7.90;;;7.10;;
8252;SDS011;61313;48.396;10.008;2024-02-26T04:08:13;9.20;;;7.40;;
8252;SDS011;61313;48.396;10.008;2024-02-26T04:10:38;9.50;;;6.87;;
8252;SDS011;61313;48.396;10.008;2024-02-26T04:13:04;10.50;;;9.40;;
8252;SDS011;61313;48.396;10.008;2024-02-26T04:15:30;9.50;;;7.80;;
8252;SDS011;61313;48.396;10.008;2024-02-26T04:17:56;14.27;;;7.80;;
8252;SDS011;61313;48.396;10.008;2024-02-26T04:20:22;8.07;;;7.23;;
8252;SDS011;61313;48.396;10.008;2024-02-26T04:22:47;7.73;;;7.00;;
8252;SDS011;61313;48.396;10.008;2024-02-26T04:25:13;8.13;;;7.30;;
8252;SDS011;61313;48.396;10.008;2024-02-26T04:27:38;8.67;;;7.77;;
8252;SDS011;61313;48.396;10.008;2024-02-26T04:30:05;7.60;;;6.70;;
8252;SDS011;61313;48.396;10.008;2024-02-26T04:32:33;8.87;;;7.60;;
8252;SDS011;61313;48.396;10.008;2024-02-26T04:34:59;8.90;;;7.60;;
8252;SDS011;61313;48.396;10.008;2024-02-26T04:37:25;7.43;;;6.73;;
8252;SDS011;61313;48.396;10.008;2024-02-26T04:39:55;7.77;;;6.40;;
8252;SDS011;61313;48.396;10.008;2024-02-26T04:42:24;9.20;;;7.60;;
8252;SDS011;61313;48.396;10.008;2024-02-26T04:44:49;8.63;;;7.10;;
8252;SDS011;61313;48.396;10.008;2024-02-26T04:47:15;7.90;;;7.10;;
8252;SDS011;61313;48.396;10.008;2024-02-26T04:49:40;10.97;;;8.77;;
8252;SDS011;61313;48.396;10.008;2024-02-26T04:52:06;9.33;;;8.43;;
8252;SDS011;61313;48.396;10.008;2024-02-26T04:54:31;11.27;;;8.07;;
8252;SDS011;61313;48.396;10.008;2024-02-26T04:56:57;9.70;;;7.43;;
8252;SDS011;61313;48.396;10.008;2024-02-26T04:59:22;8.07;;;7.20;;
8252;SDS011;61313;48.396;10.008;2024-02-26T05:01:47;24.27;;;9.07;;
8252;SDS011;61313;48.396;10.008;2024-02-26T05:04:13;12.30;;;7.77;;
8252;SDS011;61313;48.396;10.008;2024-02-26T05:06:38;14.43;;;8.20;;
8252;SDS011;61313;48.396;10.008;2024-02-26T05:09:03;11.03;;;7.80;;
8252;SDS011;61313;48.396;10.008;2024-02-26T05:11:29;11.00;;;8.40;;
8252;SDS011;61313;48.396;10.008;2024-02-26T05:13:54;12.57;;;8.43;;
8252;SDS011;61313;48.396;10.008;2024-02-26T05:16:20;11.87;;;8.40;;
8252;SDS011;61313;48.396;10.008;2024-02-26T05:18:49;11.60;;;7.97;;
8252;SDS011;61313;48.396;10.008;2024-02-26T05:21:14;10.03;;;8.53;;
8252;SDS011;61313;48.396;10.008;2024-02-26T05:23:40;12.90;;;9.40;;
8252;SDS011;61313;48.396;10.008;2024-02-26T05:26:07;12.00;;;9.80;;
8252;SDS011;61313;48.396;10.008;2024-02-26T05:28:33;11.93;;;9.80;;
8252;SDS011;61313;48.396;10.008;2024-02-26T05:30:58;11.03;;;8.80;;
8252;SDS011;61313;48.396;10.008;2024-02-26T05:33:24;13.50;;;9.90;;
8252;SDS011;61313;48.396;10.008;2024-02-26T05:35:50;12.73;;;9.73;;
8252;SDS011;61313;48.396;10.008;2024-02-26T05:38:15;13.33;;;11.07;;
8252;SDS011;61313;48.396;10.008;2024-02-26T05:40:40;18.03;;;9.47;;
8252;SDS011;61313;48.396;10.008;2024-02-26T05:43:06;12.07;;;9.90;;
8252;SDS011;61313;48.396;10.008;2024-02-26T05:45:31;13.40;;;9.63;;
8252;SDS011;61313;48.396;10.008;2024-02-26T05:47:57;13.57;;;10.17;;
8252;SDS011;61313;48.396;10.008;2024-02-26T05:50:23;15.50;;;11.33;;
8252;SDS011;61313;48.396;10.008;2024-02-26T05:52:49;14.27;;;10.80;;
8252;SDS011;61313;48.396;10.008;2024-02-26T05:55:14;14.30;;;10.80;;
8252;SDS011;61313;48.396;10.008;2024-02-26T05:57:39;14.27;;;11.40;;
8252;SDS011;61313;48.396;10.008;2024-02-26T06:00:05;13.87;;;10.57;;
8252;SDS011;61313;48.396;10.008;2024-02-26T06:02:31;19.07;;;11.10;;
8252;SDS011;61313;48.396;10.008;2024-02-26T06:04:57;14.73;;;11.43;;
8252;SDS011;61313;48.396;10.008;2024-02-26T06:07:23;17.93;;;12.13;;
8252;SDS011;61313;48.396;10.008;2024-02-26T06:09:49;21.43;;;12.40;;
8252;SDS011;61313;48.396;10.008;2024-02-26T06:12:14;17.97;;;12.90;;
8252;SDS011;61313;48.396;10.008;2024-02-26T06:14:40;18.80;;;12.13;;
8252;SDS011;61313;48.396;10.008;2024-02-26T06:17:06;18.73;;;13.43;;
8252;SDS011;61313;48.396;10.008;2024-02-26T06:19:32;15.93;;;13.40;;
8252;SDS011;61313;48.396;10.008;2024-02-26T06:21:57;17.40;;;12.30;;
8252;SDS011;61313;48.396;10.008;2024-02-26T06:24:23;15.93;;;12.20;;
8252;SDS011;61313;48.396;10.008;2024-02-26T06:26:48;15.30;;;11.87;;
8252;SDS011;61313;48.396;10.008;2024-02-26T06:29:14;17.87;;;13.03;;
8252;SDS011;61313;48.396;10.008;2024-02-26T06:31:39;16.40;;;12.60;;
8252;SDS011;61313;48.396;10.008;2024-02-26T06:34:05;18.93;;;13.50;;
8252;SDS011;61313;48.396;10.008;2024-02-26T06:36:30;22.20;;;15.27;;
8252;SDS011;61313;48.396;10.008;2024-02-26T06:38:57;18.60;;;14.00;;
8252;SDS011;61313;48.396;10.008;2024-02-26T06:41:22;51.93;;;18.73;;
8252;SDS011;61313;48.396;10.008;2024-02-26T06:43:53;17.57;;;12.03;;
8252;SDS011;61313;48.396;10.008;2024-02-26T06:46:18;22.87;;;15.10;;
8252;SDS011;61313;48.396;10.008;2024-02-26T06:48:44;17.70;;;13.20;;
8252;SDS011;61313;48.396;10.008;2024-02-26T06:51:09;20.00;;;13.90;;
8252;SDS011;61313;48.396;10.008;2024-02-26T06:53:34;17.57;;;13.47;;
8252;SDS011;61313;48.396;10.008;2024-02-26T06:56:00;19.73;;;14.23;;
8252;SDS011;61313;48.396;10.008;2024-02-26T06:58:25;16.80;;;12.87;;
8252;SDS011;61313;48.396;10.008;2024-02-26T07:00:50;19.03;;;12.93;;
8252;SDS011;61313;48.396;10.008;2024-02-26T07:03:16;18.90;;;13.37;;
8252;SDS011;61313;48.396;10.008;2024-02-26T07:05:41;16.07;;;13.10;;
8252;SDS011;61313;48.396;10.008;2024-02-26T07:08:07;17.27;;;13.27;;
8252;SDS011;61313;48.396;10.008;2024-02-26T07:10:32;18.60;;;13.53;;
8252;SDS011;61313;48.396;10.008;2024-02-26T07:12:58;19.97;;;13.60;;
8252;SDS011;61313;48.396;10.008;2024-02-26T07:15:23;21.27;;;13.10;;
8252;SDS011;61313;48.396;10.008;2024-02-26T07:17:49;18.87;;;13.10;;
8252;SDS011;61313;48.396;10.008;2024-02-26T07:20:15;22.73;;;12.80;;
8252;SDS011;61313;48.396;10.008;2024-02-26T07:22:40;16.30;;;11.17;;
8252;SDS011;61313;48.396;10.008;2024-02-26T07:25:07;21.97;;;12.23;;
8252;SDS011;61313;48.396;10.008;2024-02-26T07:27:33;17.23;;;13.03;;
8252;SDS011;61313;48.396;10.008;2024-02-26T07:29:59;23.50;;;12.63;;
8252;SDS011;61313;48.396;10.008;2024-02-26T07:32:24;15.53;;;11.60;;
8252;SDS011;61313;48.396;10.008;2024-02-26T07:34:50;18.37;;;13.17;;
8252;SDS011;61313;48.396;10.008;2024-02-26T07:37:15;18.50;;;12.67;;
8252;SDS011;61313;48.396;10.008;2024-02-26T07:39:41;16.70;;;12.00;;
8252;SDS011;61313;48.396;10.008;2024-02-26T07:42:06;14.90;;;11.27;;
8252;SDS011;61313;48.396;10.008;2024-02-26T07:44:32;16.67;;;12.03;;
8252;SDS011;61313;48.396;10.008;2024-02-26T07:46:58;17.40;;;12.20;;
8252;SDS011;61313;48.396;10.008;2024-02-26T07:49:23;34.00;;;16.50;;
8252;SDS011;61313;48.396;10.008;2024-02-26T07:51:49;19.00;;;11.97;;
8252;SDS011;61313;48.396;10.008;2024-02-26T07:54:14;18.50;;;13.17;;
8252;SDS011;61313;48.396;10.008;2024-02-26T07:56:41;20.70;;;11.57;;
8252;SDS011;61313;48.396;10.008;2024-02-26T07:59:06;14.40;;;12.03;;
8252;SDS011;61313;48.396;10.008;2024-02-26T08:01:32;22.13;;;13.43;;
8252;SDS011;61313;48.396;10.008;2024-02-26T08:03:58;17.47;;;13.70;;
8252;SDS011;61313;48.396;10.008;2024-02-26T08:06:24;15.97;;;10.97;;
8252;SDS011;61313;48.396;10.008;2024-02-26T08:08:50;18.00;;;12.87;;
8252;SDS011;61313;48.396;10.008;2024-02-26T08:11:15;12.40;;;10.10;;
8252;SDS011;61313;48.396;10.008;2024-02-26T08:13:41;15.23;;;12.27;;
8252;SDS011;61313;48.396;10.008;2024-02-26T08:16:06;14.67;;;10.83;;
8252;SDS011;61313;48.396;10.008;2024-02-26T08:18:32;18.97;;;13.30;;
8252;SDS011;61313;48.396;10.008;2024-02-26T08:20:57;18.63;;;11.90;;
8252;SDS011;61313;48.396;10.008;2024-02-26T08:23:23;18.73;;;11.73;;
8252;SDS011;61313;48.396;10.008;2024-02-26T08:25:48;30.60;;;12.13;;
8252;SDS011;61313;48.396;10.008;2024-02-26T08:28:14;19.90;;;12.67;;
8252;SDS011;61313;48.396;10.008;2024-02-26T08:30:39;16.87;;;12.60;;
8252;SDS011;61313;48.396;10.008;2024-02-26T08:33:05;16.40;;;10.40;;
8252;SDS011;61313;48.396;10.008;2024-02-26T08:35:30;14.23;;;11.47;;
8252;SDS011;61313;48.396;10.008;2024-02-26T08:37:55;17.40;;;12.10;;
8252;SDS011;61313;48.396;10.008;2024-02-26T08:40:21;15.23;;;10.27;;
8252;SDS011;61313;48.396;10.008;2024-02-26T08:42:46;16.33;;;11.97;;
8252;SDS011;61313;48.396;10.008;2024-02-26T08:45:12;15.10;;;10.63;;
8252;SDS011;61313;48.396;10.008;2024-02-26T08:47:37;14.53;;;11.63;;
8252;SDS011;61313;48.396;10.008;2024-02-26T08:50:03;17.13;;;11.23;;
8252;SDS011;61313;48.396;10.008;2024-02-26T08:52:30;13.77;;;11.00;;
8252;SDS011;61313;48.396;10.008;2024-02-26T08:54:55;12.00;;;10.80;;
8252;SDS011;61313;48.396;10.008;2024-02-26T08:57:20;14.10;;;11.40;;
8252;SDS011;61313;48.396;10.008;2024-02-26T08:59:46;12.67;;;10.00;;
8252;SDS011;61313;48.396;10.008;2024-02-26T09:02:11;13.50;;;11.50;;
8252;SDS011;61313;48.396;10.008;2024-02-26T09:04:36;15.80;;;11.83;;
8252;SDS011;61313;48.396;10.008;2024-02-26T09:07:02;13.37;;;11.07;;
8252;SDS011;61313;48.396;10.008;2024-02-26T09:09:28;14.57;;;11.23;;
8252;SDS011;61313;48.396;10.008;2024-02-26T09:11:53;15.00;;;11.07;;
8252;SDS011;61313;48.396;10.008;2024-02-26T09:14:20;15.10;;;11.70;;
8252;SDS011;61313;48.396;10.008;2024-02-26T09:16:46;14.30;;;11.80;;
8252;SDS011;61313;48.396;10.008;2024-02-26T09:19:13;17.43;;;11.13;;
8252;SDS011;61313;48.396;10.008;2024-02-26T09:21:42;12.07;;;9.87;;
8252;SDS011;61313;48.396;10.008;2024-02-26T09:24:11;11.23;;;10.00;;
8252;SDS011;61313;48.396;10.008;2024-02-26T09:26:37;11.23;;;10.03;;
8252;SDS011;61313;48.396;10.008;2024-02-26T09:29:03;13.27;;;10.53;;
8252;SDS011;61313;48.396;10.008;2024-02-26T09:31:29;12.57;;;9.90;;
8252;SDS011;61313;48.396;10.008;2024-02-26T09:33:55;15.43;;;10.20;;
8252;SDS011;61313;48.396;10.008;2024-02-26T09:36:20;12.00;;;10.23;;
8252;SDS011;61313;48.396;10.008;2024-02-26T09:38:46;11.27;;;10.10;;
8252;SDS011;61313;48.396;10.008;2024-02-26T09:41:15;15.97;;;9.57;;
8252;SDS011;61313;48.396;10.008;2024-02-26T09:43:42;15.63;;;11.37;;
8252;SDS011;61313;48.396;10.008;2024-02-26T09:46:11;10.90;;;9.63;;
8252;SDS011;61313;48.396;10.008;2024-02-26T09:48:37;13.37;;;10.20;;
8252;SDS011;61313;48.396;10.008;2024-02-26T09:51:02;19.70;;;11.03;;
8252;SDS011;61313;48.396;10.008;2024-02-26T09:53:29;19.10;;;10.77;;
8252;SDS011;61313;48.396;10.008;2024-02-26T09:55:57;13.10;;;10.97;;
8252;SDS011;61313;48.396;10.008;2024-02-26T09:58:23;11.80;;;8.23;;
8252;SDS011;61313;48.396;10.008;2024-02-26T10:00:51;9.10;;;7.80;;
8252;SDS011;61313;48.396;10.008;2024-02-26T10:03:21;10.30;;;8.57;;
8252;SDS011;61313;48.396;10.008;2024-02-26T10:05:50;12.23;;;8.70;;
8252;SDS011;61313;48.396;10.008;2024-02-26T10:08:15;10.77;;;8.10;;
8252;SDS011;61313;48.396;10.008;2024-02-26T10:10:43;13.20;;;8.83;;
8252;SDS011;61313;48.396;10.008;2024-02-26T10:13:09;17.07;;;9.93;;
8252;SDS011;61313;48.396;10.008;2024-02-26T10:15:36;10.50;;;8.70;;
8252;SDS011;61313;48.396;10.008;2024-02-26T10:18:05;11.53;;;9.37;;
8252;SDS011;61313;48.396;10.008;2024-02-26T10:20:31;10.97;;;8.93;;
8252;SDS011;61313;48.396;10.008;2024-02-26T10:22:58;11.70;;;9.90;;
8252;SDS011;61313;48.396;10.008;2024-02-26T10:25:23;11.37;;;9.33;;
8252;SDS011;61313;48.396;10.008;2024-02-26T10:27:49;12.37;;;9.07;;
8252;SDS011;61313;48.396;10.008;2024-02-26T10:32:44;11.27;;;8.60;;
8252;SDS011;61313;48.396;10.008;2024-02-26T10:35:14;11.90;;;8.57;;
8252;SDS011;61313;48.396;10.008;2024-02-26T10:37:40;9.63;;;8.30;;
8252;SDS011;61313;48.396;10.008;2024-02-26T10:40:09;9.63;;;7.80;;
8252;SDS011;61313;48.396;10.008;2024-02-26T10:42:35;11.60;;;9.30;;
8252;SDS011;61313;48.396;10.008;2024-02-26T10:45:00;13.03;;;8.90;;
8252;SDS011;61313;48.396;10.008;2024-02-26T10:47:27;13.37;;;9.00;;
8252;SDS011;61313;48.396;10.008;2024-02-26T10:49:54;9.67;;;8.63;;
8252;SDS011;61313;48.396;10.008;2024-02-26T10:52:21;8.67;;;7.60;;
8252;SDS011;61313;48.396;10.008;2024-02-26T10:54:50;12.93;;;7.63;;
8252;SDS011;61313;48.396;10.008;2024-02-26T10:57:19;11.13;;;9.07;;
8252;SDS011;61313;48.396;10.008;2024-02-26T10:59:46;9.43;;;8.47;;
8252;SDS011;61313;48.396;10.008;2024-02-26T11:02:13;9.60;;;8.60;;
8252;SDS011;61313;48.396;10.008;2024-02-26T11:04:39;13.50;;;8.40;;
8252;SDS011;61313;48.396;10.008;2024-02-26T11:07:05;9.20;;;8.00;;
8252;SDS011;61313;48.396;10.008;2024-02-26T11:09:33;9.00;;;7.67;;
8252;SDS011;61313;48.396;10.008;2024-02-26T11:12:00;10.50;;;8.33;;
8252;SDS011;61313;48.396;10.008;2024-02-26T11:14:26;14.10;;;8.23;;
8252;SDS011;61313;48.396;10.008;2024-02-26T11:16:55;10.77;;;7.63;;
8252;SDS011;61313;48.396;10.008;2024-02-26T11:19:21;11.13;;;7.60;;
8252;SDS011;61313;48.396;10.008;2024-02-26T11:21:49;8.67;;;7.77;;
8252;SDS011;61313;48.396;10.008;2024-02-26T11:24:15;12.00;;;8.20;;
8252;SDS011;61313;48.396;10.008;2024-02-26T11:26:54;12.20;;;8.40;;
8252;SDS011;61313;48.396;10.008;2024-02-26T11:29:24;10.80;;;8.17;;
8252;SDS011;61313;48.396;10.008;2024-02-26T11:31:54;9.63;;;7.87;;
8252;SDS011;61313;48.396;10.008;2024-02-26T11:34:20;17.33;;;8.97;;
8252;SDS011;61313;48.396;10.008;2024-02-26T11:36:46;15.17;;;8.93;;
8252;SDS011;61313;48.396;10.008;2024-02-26T11:39:12;10.77;;;9.07;;
8252;SDS011;61313;48.396;10.008;2024-02-26T11:41:40;16.83;;;9.03;;
8252;SDS011;61313;48.396;10.008;2024-02-26T11:44:05;11.47;;;9.13;;
8252;SDS011;61313;48.396;10.008;2024-02-26T11:46:32;9.60;;;8.27;;
8252;SDS011;61313;48.396;10.008;2024-02-26T11:49:03;10.20;;;7.60;;
8252;SDS011;61313;48.396;10.008;2024-02-26T11:51:50;18.13;;;9.83;;
8252;SDS011;61313;48.396;10.008;2024-02-26T11:59:57;13.20;;;10.20;;
8252;SDS011;61313;48.396;10.008;2024-02-26T12:02:48;15.50;;;8.87;;
8252;SDS011;61313;48.396;10.008;2024-02-26T12:05:22;13.70;;;8.77;;
8252;SDS011;61313;48.396;10.008;2024-02-26T12:08:02;12.83;;;9.10;;
8252;SDS011;61313;48.396;10.008;2024-02-26T12:10:32;20.63;;;9.30;;
8252;SDS011;61313;48.396;10.008;2024-02-26T12:13:13;12.53;;;10.07;;
8252;SDS011;61313;48.396;10.008;2024-02-26T12:15:43;13.00;;;10.10;;
8252;SDS011;61313;48.396;10.008;2024-02-26T12:18:20;12.97;;;10.40;;
8252;SDS011;61313;48.396;10.008;2024-02-26T12:20:56;11.23;;;8.40;;
8252;SDS011;61313;48.396;10.008;2024-02-26T12:23:24;9.90;;;8.20;;
8252;SDS011;61313;48.396;10.008;2024-02-26T12:25:49;9.00;;;8.10;;
8252;SDS011;61313;48.396;10.008;2024-02-26T12:28:15;12.70;;;8.00;;
8252;SDS011;61313;48.396;10.008;2024-02-26T12:30:40;12.83;;;9.13;;
8252;SDS011;61313;48.396;10.008;2024-02-26T12:33:06;16.00;;;8.73;;
8252;SDS011;61313;48.396;10.008;2024-02-26T12:35:33;17.60;;;9.80;;
8252;SDS011;61313;48.396;10.008;2024-02-26T12:38:00;9.77;;;7.13;;
8252;SDS011;61313;48.396;10.008;2024-02-26T12:40:25;11.10;;;8.50;;
8252;SDS011;61313;48.396;10.008;2024-02-26T12:42:52;12.57;;;8.47;;
8252;SDS011;61313;48.396;10.008;2024-02-26T12:45:20;11.20;;;8.60;;
8252;SDS011;61313;48.396;10.008;2024-02-26T12:47:45;12.13;;;9.30;;
8252;SDS011;61313;48.396;10.008;2024-02-26T12:50:12;10.53;;;8.93;;
8252;SDS011;61313;48.396;10.008;2024-02-26T12:52:43;13.50;;;8.30;;
8252;SDS011;61313;48.396;10.008;2024-02-26T12:55:11;11.93;;;8.67;;
8252;SDS011;61313;48.396;10.008;2024-02-26T12:57:39;16.43;;;8.77;;
8252;SDS011;61313;48.396;10.008;2024-02-26T13:00:08;12.80;;;7.33;;
8252;SDS011;61313;48.396;10.008;2024-02-26T13:02:37;11.00;;;8.07;;
8252;SDS011;61313;48.396;10.008;2024-02-26T13:05:03;11.37;;;8.47;;
8252;SDS011;61313;48.396;10.008;2024-02-26T13:07:31;14.10;;;7.80;;
8252;SDS011;61313;48.396;10.008;2024-02-26T13:09:56;15.73;;;8.37;;
8252;SDS011;61313;48.396;10.008;2024-02-26T13:12:22;18.00;;;8.13;;
8252;SDS011;61313;48.396;10.008;2024-02-26T13:14:57;11.20;;;6.67;;
8252;SDS011;61313;48.396;10.008;2024-02-26T13:17:24;8.17;;;5.30;;
8252;SDS011;61313;48.396;10.008;2024-02-26T13:19:50;6.30;;;4.57;;
8252;SDS011;61313;48.396;10.008;2024-02-26T13:22:16;7.50;;;5.60;;
8252;SDS011;61313;48.396;10.008;2024-02-26T13:24:41;9.93;;;6.70;;
8252;SDS011;61313;48.396;10.008;2024-02-26T13:27:07;11.47;;;6.10;;
8252;SDS011;61313;48.396;10.008;2024-02-26T13:29:33;8.07;;;5.57;;
8252;SDS011;61313;48.396;10.008;2024-02-26T13:31:58;10.90;;;6.40;;
8252;SDS011;61313;48.396;10.008;2024-02-26T13:36:53;7.60;;;6.23;;
8252;SDS011;61313;48.396;10.008;2024-02-26T13:39:23;7.93;;;7.10;;
8252;SDS011;61313;48.396;10.008;2024-02-26T13:41:50;7.50;;;6.67;;
8252;SDS011;61313;48.396;10.008;2024-02-26T13:44:16;10.63;;;7.50;;
8252;SDS011;61313;48.396;10.008;2024-02-26T13:46:41;9.23;;;7.43;;
8252;SDS011;61313;48.396;10.008;2024-02-26T13:49:08;14.57;;;7.30;;
8252;SDS011;61313;48.396;10.008;2024-02-26T13:51:34;8.80;;;7.30;;
8252;SDS011;61313;48.396;10.008;2024-02-26T13:54:00;11.37;;;7.33;;
8252;SDS011;61313;48.396;10.008;2024-02-26T13:56:26;9.50;;;7.33;;
8252;SDS011;61313;48.396;10.008;2024-02-26T13:58:52;8.30;;;7.40;;
8252;SDS011;61313;48.396;10.008;2024-02-26T14:01:17;8.90;;;7.67;;
8252;SDS011;61313;48.396;10.008;2024-02-26T14:03:43;8.33;;;6.43;;
8252;SDS011;61313;48.396;10.008;2024-02-26T14:06:08;10.77;;;7.17;;
8252;SDS011;61313;48.396;10.008;2024-02-26T14:08:34;9.37;;;8.17;;
8252;SDS011;61313;48.396;10.008;2024-02-26T14:10:59;14.90;;;8.57;;
8252;SDS011;61313;48.396;10.008;2024-02-26T14:13:25;8.00;;;6.80;;
8252;SDS011;61313;48.396;10.008;2024-02-26T14:15:50;10.07;;;8.20;;
8252;SDS011;61313;48.396;10.008;2024-02-26T14:18:16;11.03;;;7.53;;
8252;SDS011;61313;48.396;10.008;2024-02-26T14:20:41;10.77;;;8.00;;
8252;SDS011;61313;48.396;10.008;2024-02-26T14:23:07;9.63;;;7.93;;
8252;SDS011;61313;48.396;10.008;2024-02-26T14:25:33;8.37;;;7.37;;
8252;SDS011;61313;48.396;10.008;2024-02-26T14:27:58;9.37;;;7.87;;
8252;SDS011;61313;48.396;10.008;2024-02-26T14:30:24;8.17;;;7.33;;
8252;SDS011;61313;48.396;10.008;2024-02-26T14:32:50;14.47;;;8.30;;
8252;SDS011;61313;48.396;10.008;2024-02-26T14:35:16;9.67;;;8.07;;
8252;SDS011;61313;48.396;10.008;2024-02-26T14:37:42;12.43;;;8.57;;
8252;SDS011;61313;48.396;10.008;2024-02-26T14:40:11;8.40;;;7.43;;